sensor_id;sensor_type;location;lat;lon;timestamp;temperature;humidity
7046;DHT22;3564;53.326;10.356;2023-03-16T00:01:39;5.30;94.80
7046;DHT22;3564;53.326;10.356;2023-03-16T00:04:05;5.30;94.70
7046;DHT22;3564;53.326;10.356;2023-03-16T00:06:30;5.30;94.80
7046;DHT22;3564;53.326;10.356;2023-03-16T00:08:56;5.20;94.90
7046;DHT22;3564;53.326;10.356;2023-03-16T00:11:24;5.20;94.90
7046;DHT22;3564;53.326;10.356;2023-03-16T00:13:50;5.20;94.90
7046;DHT22;3564;53.326;10.356;2023-03-16T00:16:15;5.20;95.00
7046;DHT22;3564;53.326;10.356;2023-03-16T00:18:42;5.20;94.90
7046;DHT22;3564;53.326;10.356;2023-03-16T00:21:07;5.20;95.00
7046;DHT22;3564;53.326;10.356;2023-03-16T00:23:34;5.20;94.90
7046;DHT22;3564;53.326;10.356;2023-03-16T00:26:03;5.20;95.00
7046;DHT22;3564;53.326;10.356;2023-03-16T00:28:30;5.20;94.80
7046;DHT22;3564;53.326;10.356;2023-03-16T00:31:04;5.20;94.80
7046;DHT22;3564;53.326;10.356;2023-03-16T00:33:31;5.20;95.00
7046;DHT22;3564;53.326;10.356;2023-03-16T00:36:05;5.20;95.00
7046;DHT22;3564;53.326;10.356;2023-03-16T00:38:35;5.10;94.80
7046;DHT22;3564;53.326;10.356;2023-03-16T00:41:02;5.10;94.80
7046;DHT22;3564;53.326;10.356;2023-03-16T00:43:33;5.10;95.00
7046;DHT22;3564;53.326;10.356;2023-03-16T00:46:07;5.10;95.00
7046;DHT22;3564;53.326;10.356;2023-03-16T00:48:38;5.00;94.80
7046;DHT22;3564;53.326;10.356;2023-03-16T00:51:06;5.00;94.70
7046;DHT22;3564;53.326;10.356;2023-03-16T00:53:34;5.00;94.70
7046;DHT22;3564;53.326;10.356;2023-03-16T00:56:01;4.90;94.80
7046;DHT22;3564;53.326;10.356;2023-03-16T00:58:32;4.90;94.90
7046;DHT22;3564;53.326;10.356;2023-03-16T01:01:09;4.90;94.90
7046;DHT22;3564;53.326;10.356;2023-03-16T01:03:35;4.90;94.80
7046;DHT22;3564;53.326;10.356;2023-03-16T01:06:09;4.80;94.80
7046;DHT22;3564;53.326;10.356;2023-03-16T01:08:51;4.80;94.80
7046;DHT22;3564;53.326;10.356;2023-03-16T01:11:20;4.80;94.70
7046;DHT22;3564;53.326;10.356;2023-03-16T01:13:48;4.70;94.70
7046;DHT22;3564;53.326;10.356;2023-03-16T01:16:15;4.70;94.60
7046;DHT22;3564;53.326;10.356;2023-03-16T01:18:43;4.70;94.60
7046;DHT22;3564;53.326;10.356;2023-03-16T01:21:09;4.70;94.60
7046;DHT22;3564;53.326;10.356;2023-03-16T01:23:38;4.60;94.60
7046;DHT22;3564;53.326;10.356;2023-03-16T01:26:04;4.60;94.70
7046;DHT22;3564;53.326;10.356;2023-03-16T01:28:31;4.60;94.70
7046;DHT22;3564;53.326;10.356;2023-03-16T01:31:09;4.50;94.80
7046;DHT22;3564;53.326;10.356;2023-03-16T01:33:36;4.50;94.90
7046;DHT22;3564;53.326;10.356;2023-03-16T01:36:05;4.50;95.00
7046;DHT22;3564;53.326;10.356;2023-03-16T01:38:33;4.60;95.20
7046;DHT22;3564;53.326;10.356;2023-03-16T01:40:59;4.60;95.30
7046;DHT22;3564;53.326;10.356;2023-03-16T01:43:28;4.60;95.30
7046;DHT22;3564;53.326;10.356;2023-03-16T01:51:09;4.70;95.20
7046;DHT22;3564;53.326;10.356;2023-03-16T01:53:37;4.70;95.20
7046;DHT22;3564;53.326;10.356;2023-03-16T01:56:06;4.70;95.30
7046;DHT22;3564;53.326;10.356;2023-03-16T01:58:34;4.70;95.30
7046;DHT22;3564;53.326;10.356;2023-03-16T02:01:01;4.80;95.30
7046;DHT22;3564;53.326;10.356;2023-03-16T02:03:28;4.80;95.20
7046;DHT22;3564;53.326;10.356;2023-03-16T02:06:03;4.80;95.20
7046;DHT22;3564;53.326;10.356;2023-03-16T02:08:31;4.80;95.20
7046;DHT22;3564;53.326;10.356;2023-03-16T02:10:57;4.90;95.10
7046;DHT22;3564;53.326;10.356;2023-03-16T02:13:25;4.90;95.00
7046;DHT22;3564;53.326;10.356;2023-03-16T02:15:54;4.90;94.90
7046;DHT22;3564;53.326;10.356;2023-03-16T02:18:20;4.90;94.90
7046;DHT22;3564;53.326;10.356;2023-03-16T02:20:52;4.90;94.70
7046;DHT22;3564;53.326;10.356;2023-03-16T02:23:32;4.90;94.70
7046;DHT22;3564;53.326;10.356;2023-03-16T02:28:37;4.90;94.60
7046;DHT22;3564;53.326;10.356;2023-03-16T02:31:09;4.80;94.50
7046;DHT22;3564;53.326;10.356;2023-03-16T02:33:35;4.80;94.40
7046;DHT22;3564;53.326;10.356;2023-03-16T02:36:00;4.80;94.40
7046;DHT22;3564;53.326;10.356;2023-03-16T02:38:26;4.70;94.30
7046;DHT22;3564;53.326;10.356;2023-03-16T02:40:57;4.70;94.30
7046;DHT22;3564;53.326;10.356;2023-03-16T02:43:30;4.70;94.30
7046;DHT22;3564;53.326;10.356;2023-03-16T02:45:59;4.60;94.30
7046;DHT22;3564;53.326;10.356;2023-03-16T02:51:08;4.50;94.40
7046;DHT22;3564;53.326;10.356;2023-03-16T02:53:34;4.50;94.30
7046;DHT22;3564;53.326;10.356;2023-03-16T02:56:00;4.50;94.40
7046;DHT22;3564;53.326;10.356;2023-03-16T02:58:28;4.40;94.40
7046;DHT22;3564;53.326;10.356;2023-03-16T03:00:55;4.40;94.40
7046;DHT22;3564;53.326;10.356;2023-03-16T03:03:24;4.40;94.50
7046;DHT22;3564;53.326;10.356;2023-03-16T03:05:50;4.40;94.60
7046;DHT22;3564;53.326;10.356;2023-03-16T03:08:15;4.30;94.60
7046;DHT22;3564;53.326;10.356;2023-03-16T03:10:41;4.30;94.60
7046;DHT22;3564;53.326;10.356;2023-03-16T03:13:06;4.30;94.70
7046;DHT22;3564;53.326;10.356;2023-03-16T03:15:35;4.30;94.70
7046;DHT22;3564;53.326;10.356;2023-03-16T03:18:01;4.30;94.70
7046;DHT22;3564;53.326;10.356;2023-03-16T03:20:27;4.30;94.90
7046;DHT22;3564;53.326;10.356;2023-03-16T03:22:52;4.30;94.70
7046;DHT22;3564;53.326;10.356;2023-03-16T03:25:19;4.30;94.70
7046;DHT22;3564;53.326;10.356;2023-03-16T03:27:46;4.30;94.70
7046;DHT22;3564;53.326;10.356;2023-03-16T03:30:18;4.20;94.70
7046;DHT22;3564;53.326;10.356;2023-03-16T03:32:44;4.30;94.70
7046;DHT22;3564;53.326;10.356;2023-03-16T03:35:11;4.20;94.70
7046;DHT22;3564;53.326;10.356;2023-03-16T03:37:39;4.20;94.70
7046;DHT22;3564;53.326;10.356;2023-03-16T03:40:06;4.20;94.70
7046;DHT22;3564;53.326;10.356;2023-03-16T03:42:32;4.20;94.70
7046;DHT22;3564;53.326;10.356;2023-03-16T03:44:57;4.20;94.70
7046;DHT22;3564;53.326;10.356;2023-03-16T03:47:23;4.20;94.80
7046;DHT22;3564;53.326;10.356;2023-03-16T03:49:48;4.20;94.70
7046;DHT22;3564;53.326;10.356;2023-03-16T03:52:14;4.20;94.70
7046;DHT22;3564;53.326;10.356;2023-03-16T03:54:39;4.20;94.60
7046;DHT22;3564;53.326;10.356;2023-03-16T03:57:05;4.20;94.60
7046;DHT22;3564;53.326;10.356;2023-03-16T03:59:31;4.20;94.60
7046;DHT22;3564;53.326;10.356;2023-03-16T04:01:56;4.20;94.60
7046;DHT22;3564;53.326;10.356;2023-03-16T04:04:22;4.20;94.60
7046;DHT22;3564;53.326;10.356;2023-03-16T04:06:47;4.20;94.70
7046;DHT22;3564;53.326;10.356;2023-03-16T04:09:13;4.20;94.70
7046;DHT22;3564;53.326;10.356;2023-03-16T04:11:39;4.10;94.60
7046;DHT22;3564;53.326;10.356;2023-03-16T04:14:05;4.20;94.70
7046;DHT22;3564;53.326;10.356;2023-03-16T04:16:31;4.20;94.70
7046;DHT22;3564;53.326;10.356;2023-03-16T04:18:56;4.10;94.70
7046;DHT22;3564;53.326;10.356;2023-03-16T04:21:23;4.20;94.80
7046;DHT22;3564;53.326;10.356;2023-03-16T04:23:49;4.10;94.70
7046;DHT22;3564;53.326;10.356;2023-03-16T04:26:19;4.20;94.80
7046;DHT22;3564;53.326;10.356;2023-03-16T04:28:45;4.20;94.80
7046;DHT22;3564;53.326;10.356;2023-03-16T04:31:11;4.20;94.80
7046;DHT22;3564;53.326;10.356;2023-03-16T04:33:38;4.20;94.70
7046;DHT22;3564;53.326;10.356;2023-03-16T04:36:05;4.20;94.70
7046;DHT22;3564;53.326;10.356;2023-03-16T04:38:33;4.20;94.70
7046;DHT22;3564;53.326;10.356;2023-03-16T04:41:00;4.30;94.70
7046;DHT22;3564;53.326;10.356;2023-03-16T04:43:26;4.30;94.60
7046;DHT22;3564;53.326;10.356;2023-03-16T04:45:52;4.30;94.60
7046;DHT22;3564;53.326;10.356;2023-03-16T04:48:18;4.30;94.50
7046;DHT22;3564;53.326;10.356;2023-03-16T04:50:44;4.30;94.40
7046;DHT22;3564;53.326;10.356;2023-03-16T04:53:10;4.30;94.40
7046;DHT22;3564;53.326;10.356;2023-03-16T04:55:35;4.30;94.40
7046;DHT22;3564;53.326;10.356;2023-03-16T04:58:01;4.30;94.30
7046;DHT22;3564;53.326;10.356;2023-03-16T05:00:27;4.30;94.40
7046;DHT22;3564;53.326;10.356;2023-03-16T05:02:52;4.20;94.40
7046;DHT22;3564;53.326;10.356;2023-03-16T05:05:19;4.20;94.30
7046;DHT22;3564;53.326;10.356;2023-03-16T05:07:46;4.20;94.30
7046;DHT22;3564;53.326;10.356;2023-03-16T05:10:13;4.20;94.40
7046;DHT22;3564;53.326;10.356;2023-03-16T05:12:39;4.10;94.40
7046;DHT22;3564;53.326;10.356;2023-03-16T05:15:05;4.20;94.50
7046;DHT22;3564;53.326;10.356;2023-03-16T05:17:31;4.10;94.40
7046;DHT22;3564;53.326;10.356;2023-03-16T05:19:57;4.10;94.40
7046;DHT22;3564;53.326;10.356;2023-03-16T05:22:22;4.10;94.80
7046;DHT22;3564;53.326;10.356;2023-03-16T05:24:48;4.10;94.60
7046;DHT22;3564;53.326;10.356;2023-03-16T05:27:13;4.10;94.70
7046;DHT22;3564;53.326;10.356;2023-03-16T05:29:39;4.10;94.80
7046;DHT22;3564;53.326;10.356;2023-03-16T05:32:05;4.10;94.70
7046;DHT22;3564;53.326;10.356;2023-03-16T05:34:31;4.20;94.80
7046;DHT22;3564;53.326;10.356;2023-03-16T05:36:56;4.20;94.80
7046;DHT22;3564;53.326;10.356;2023-03-16T05:39:22;4.20;94.70
7046;DHT22;3564;53.326;10.356;2023-03-16T05:41:48;4.20;94.70
7046;DHT22;3564;53.326;10.356;2023-03-16T05:44:14;4.20;94.70
7046;DHT22;3564;53.326;10.356;2023-03-16T05:46:39;4.20;94.60
7046;DHT22;3564;53.326;10.356;2023-03-16T05:49:05;4.30;94.70
7046;DHT22;3564;53.326;10.356;2023-03-16T05:51:31;4.30;94.70
7046;DHT22;3564;53.326;10.356;2023-03-16T05:53:57;4.30;94.70
7046;DHT22;3564;53.326;10.356;2023-03-16T05:56:24;4.30;94.70
7046;DHT22;3564;53.326;10.356;2023-03-16T05:58:51;4.40;94.60
7046;DHT22;3564;53.326;10.356;2023-03-16T06:01:18;4.40;94.60
7046;DHT22;3564;53.326;10.356;2023-03-16T06:03:45;4.40;94.60
7046;DHT22;3564;53.326;10.356;2023-03-16T06:06:11;4.50;94.60
7046;DHT22;3564;53.326;10.356;2023-03-16T06:08:38;4.50;94.60
7046;DHT22;3564;53.326;10.356;2023-03-16T06:11:03;4.50;94.60
7046;DHT22;3564;53.326;10.356;2023-03-16T06:13:29;4.60;94.60
7046;DHT22;3564;53.326;10.356;2023-03-16T06:15:55;4.60;94.60
7046;DHT22;3564;53.326;10.356;2023-03-16T06:18:20;4.60;94.60
7046;DHT22;3564;53.326;10.356;2023-03-16T06:20:46;4.70;94.70
7046;DHT22;3564;53.326;10.356;2023-03-16T06:23:12;4.70;94.70
7046;DHT22;3564;53.326;10.356;2023-03-16T06:25:38;4.70;94.70
7046;DHT22;3564;53.326;10.356;2023-03-16T06:28:04;4.80;94.80
7046;DHT22;3564;53.326;10.356;2023-03-16T06:30:30;4.80;94.70
7046;DHT22;3564;53.326;10.356;2023-03-16T06:32:56;4.90;94.70
7046;DHT22;3564;53.326;10.356;2023-03-16T06:35:22;5.00;94.70
7046;DHT22;3564;53.326;10.356;2023-03-16T06:37:48;5.00;94.70
7046;DHT22;3564;53.326;10.356;2023-03-16T06:40:13;5.10;94.60
7046;DHT22;3564;53.326;10.356;2023-03-16T06:42:39;5.10;94.60
7046;DHT22;3564;53.326;10.356;2023-03-16T06:45:05;5.10;94.60
7046;DHT22;3564;53.326;10.356;2023-03-16T06:47:31;5.20;94.60
7046;DHT22;3564;53.326;10.356;2023-03-16T06:49:56;5.20;94.50
7046;DHT22;3564;53.326;10.356;2023-03-16T06:52:22;5.30;94.50
7046;DHT22;3564;53.326;10.356;2023-03-16T06:54:48;5.30;94.50
7046;DHT22;3564;53.326;10.356;2023-03-16T06:57:13;5.30;94.50
7046;DHT22;3564;53.326;10.356;2023-03-16T06:59:39;5.40;94.50
7046;DHT22;3564;53.326;10.356;2023-03-16T07:02:05;5.40;94.50
7046;DHT22;3564;53.326;10.356;2023-03-16T07:04:31;5.50;94.50
7046;DHT22;3564;53.326;10.356;2023-03-16T07:06:58;5.50;94.60
7046;DHT22;3564;53.326;10.356;2023-03-16T07:09:24;5.50;94.60
7046;DHT22;3564;53.326;10.356;2023-03-16T07:11:49;5.60;94.60
7046;DHT22;3564;53.326;10.356;2023-03-16T07:14:17;5.60;94.60
7046;DHT22;3564;53.326;10.356;2023-03-16T07:16:44;5.60;94.60
7046;DHT22;3564;53.326;10.356;2023-03-16T07:19:14;5.60;94.70
7046;DHT22;3564;53.326;10.356;2023-03-16T07:21:40;5.70;94.80
7046;DHT22;3564;53.326;10.356;2023-03-16T07:24:07;5.70;94.80
7046;DHT22;3564;53.326;10.356;2023-03-16T07:26:34;5.70;94.80
7046;DHT22;3564;53.326;10.356;2023-03-16T07:29:00;5.70;94.70
7046;DHT22;3564;53.326;10.356;2023-03-16T07:31:25;5.70;94.70
7046;DHT22;3564;53.326;10.356;2023-03-16T07:33:51;5.70;94.70
7046;DHT22;3564;53.326;10.356;2023-03-16T07:36:17;5.70;94.80
7046;DHT22;3564;53.326;10.356;2023-03-16T07:38:42;5.70;94.80
7046;DHT22;3564;53.326;10.356;2023-03-16T07:41:08;5.80;94.60
7046;DHT22;3564;53.326;10.356;2023-03-16T07:43:34;5.80;94.60
7046;DHT22;3564;53.326;10.356;2023-03-16T07:45:59;5.80;94.40
7046;DHT22;3564;53.326;10.356;2023-03-16T07:48:26;5.80;94.50
7046;DHT22;3564;53.326;10.356;2023-03-16T07:50:52;5.90;94.70
7046;DHT22;3564;53.326;10.356;2023-03-16T07:53:18;5.90;94.30
7046;DHT22;3564;53.326;10.356;2023-03-16T07:55:44;6.00;94.30
7046;DHT22;3564;53.326;10.356;2023-03-16T07:58:10;6.00;94.20
7046;DHT22;3564;53.326;10.356;2023-03-16T08:00:36;6.00;94.20
7046;DHT22;3564;53.326;10.356;2023-03-16T08:03:02;6.00;94.00
7046;DHT22;3564;53.326;10.356;2023-03-16T08:05:29;6.00;94.00
7046;DHT22;3564;53.326;10.356;2023-03-16T08:07:57;6.10;94.00
7046;DHT22;3564;53.326;10.356;2023-03-16T08:10:23;6.10;94.10
7046;DHT22;3564;53.326;10.356;2023-03-16T08:12:49;6.10;94.10
7046;DHT22;3564;53.326;10.356;2023-03-16T08:15:16;6.20;94.10
7046;DHT22;3564;53.326;10.356;2023-03-16T08:17:41;6.20;94.00
7046;DHT22;3564;53.326;10.356;2023-03-16T08:20:08;6.30;94.10
7046;DHT22;3564;53.326;10.356;2023-03-16T08:22:36;6.40;94.20
7046;DHT22;3564;53.326;10.356;2023-03-16T08:25:07;6.50;94.30
7046;DHT22;3564;53.326;10.356;2023-03-16T08:27:37;6.50;94.10
7046;DHT22;3564;53.326;10.356;2023-03-16T08:30:07;6.60;93.90
7046;DHT22;3564;53.326;10.356;2023-03-16T08:32:36;6.70;94.00
7046;DHT22;3564;53.326;10.356;2023-03-16T08:35:05;6.70;93.80
7046;DHT22;3564;53.326;10.356;2023-03-16T08:37:30;6.80;93.60
7046;DHT22;3564;53.326;10.356;2023-03-16T08:39:56;6.80;93.60
7046;DHT22;3564;53.326;10.356;2023-03-16T08:42:25;6.90;93.70
7046;DHT22;3564;53.326;10.356;2023-03-16T08:44:50;6.90;93.70
7046;DHT22;3564;53.326;10.356;2023-03-16T08:47:22;7.00;93.70
7046;DHT22;3564;53.326;10.356;2023-03-16T08:49:51;7.10;93.80
7046;DHT22;3564;53.326;10.356;2023-03-16T08:52:16;7.20;93.80
7046;DHT22;3564;53.326;10.356;2023-03-16T08:54:42;7.30;93.70
7046;DHT22;3564;53.326;10.356;2023-03-16T08:57:08;7.30;93.50
7046;DHT22;3564;53.326;10.356;2023-03-16T08:59:35;7.40;93.50
7046;DHT22;3564;53.326;10.356;2023-03-16T09:02:00;7.50;93.40
7046;DHT22;3564;53.326;10.356;2023-03-16T09:04:28;7.60;93.50
7046;DHT22;3564;53.326;10.356;2023-03-16T09:06:55;7.60;93.40
7046;DHT22;3564;53.326;10.356;2023-03-16T09:09:21;7.70;93.40
7046;DHT22;3564;53.326;10.356;2023-03-16T09:11:47;7.70;93.40
7046;DHT22;3564;53.326;10.356;2023-03-16T09:14:14;7.80;93.40
7046;DHT22;3564;53.326;10.356;2023-03-16T09:16:39;7.80;93.20
7046;DHT22;3564;53.326;10.356;2023-03-16T09:19:05;7.90;93.20
7046;DHT22;3564;53.326;10.356;2023-03-16T09:21:32;8.00;93.30
7046;DHT22;3564;53.326;10.356;2023-03-16T09:23:59;8.10;93.30
7046;DHT22;3564;53.326;10.356;2023-03-16T09:26:25;8.20;93.00
7046;DHT22;3564;53.326;10.356;2023-03-16T09:28:52;8.20;93.10
7046;DHT22;3564;53.326;10.356;2023-03-16T09:31:19;8.30;93.10
7046;DHT22;3564;53.326;10.356;2023-03-16T09:33:46;8.40;93.10
7046;DHT22;3564;53.326;10.356;2023-03-16T09:36:12;8.50;93.00
7046;DHT22;3564;53.326;10.356;2023-03-16T09:38:39;8.60;92.50
7046;DHT22;3564;53.326;10.356;2023-03-16T09:44:08;8.80;92.30
7046;DHT22;3564;53.326;10.356;2023-03-16T09:46:44;8.90;92.30
7046;DHT22;3564;53.326;10.356;2023-03-16T09:49:18;9.00;92.30
7046;DHT22;3564;53.326;10.356;2023-03-16T09:54:59;9.30;91.90
7046;DHT22;3564;53.326;10.356;2023-03-16T09:57:31;9.40;91.90
7046;DHT22;3564;53.326;10.356;2023-03-16T10:00:13;9.50;92.20
7046;DHT22;3564;53.326;10.356;2023-03-16T10:02:57;9.60;92.30
7046;DHT22;3564;53.326;10.356;2023-03-16T10:05:23;9.80;91.90
7046;DHT22;3564;53.326;10.356;2023-03-16T10:10:46;10.00;91.30
7046;DHT22;3564;53.326;10.356;2023-03-16T10:15:55;10.20;89.90
7046;DHT22;3564;53.326;10.356;2023-03-16T10:18:27;10.30;90.20
7046;DHT22;3564;53.326;10.356;2023-03-16T10:20:57;10.40;89.60
7046;DHT22;3564;53.326;10.356;2023-03-16T10:23:24;10.50;86.50
7046;DHT22;3564;53.326;10.356;2023-03-16T10:25:55;10.60;82.70
7046;DHT22;3564;53.326;10.356;2023-03-16T10:28:22;10.70;81.70
7046;DHT22;3564;53.326;10.356;2023-03-16T10:30:50;10.90;81.30
7046;DHT22;3564;53.326;10.356;2023-03-16T10:33:31;11.00;78.40
7046;DHT22;3564;53.326;10.356;2023-03-16T10:36:29;11.00;75.00
7046;DHT22;3564;53.326;10.356;2023-03-16T10:41:34;11.10;74.80
7046;DHT22;3564;53.326;10.356;2023-03-16T10:44:01;11.20;73.30
7046;DHT22;3564;53.326;10.356;2023-03-16T10:46:49;11.20;72.30
7046;DHT22;3564;53.326;10.356;2023-03-16T10:49:45;11.30;71.70
7046;DHT22;3564;53.326;10.356;2023-03-16T10:55:01;11.40;70.10
7046;DHT22;3564;53.326;10.356;2023-03-16T10:57:33;11.50;69.60
7046;DHT22;3564;53.326;10.356;2023-03-16T11:00:11;11.50;69.70
7046;DHT22;3564;53.326;10.356;2023-03-16T11:02:46;11.60;67.40
7046;DHT22;3564;53.326;10.356;2023-03-16T11:10:38;11.80;67.60
7046;DHT22;3564;53.326;10.356;2023-03-16T11:13:16;11.90;67.50
7046;DHT22;3564;53.326;10.356;2023-03-16T11:18:35;12.00;62.30
7046;DHT22;3564;53.326;10.356;2023-03-16T11:21:12;12.00;63.50
7046;DHT22;3564;53.326;10.356;2023-03-16T11:23:46;12.10;65.10
7046;DHT22;3564;53.326;10.356;2023-03-16T11:26:29;12.10;67.60
7046;DHT22;3564;53.326;10.356;2023-03-16T11:32:05;12.30;64.10
7046;DHT22;3564;53.326;10.356;2023-03-16T11:34:35;12.40;63.20
7046;DHT22;3564;53.326;10.356;2023-03-16T11:39:57;12.50;65.20
7046;DHT22;3564;53.326;10.356;2023-03-16T11:42:29;12.60;65.20
7046;DHT22;3564;53.326;10.356;2023-03-16T11:45:16;12.70;64.60
7046;DHT22;3564;53.326;10.356;2023-03-16T11:48:14;12.80;63.70
7046;DHT22;3564;53.326;10.356;2023-03-16T11:53:44;12.80;60.50
7046;DHT22;3564;53.326;10.356;2023-03-16T11:56:21;12.80;62.20
7046;DHT22;3564;53.326;10.356;2023-03-16T12:07:39;13.00;63.60
7046;DHT22;3564;53.326;10.356;2023-03-16T12:15:37;13.20;60.90
7046;DHT22;3564;53.326;10.356;2023-03-16T12:21:19;13.30;61.70
7046;DHT22;3564;53.326;10.356;2023-03-16T12:23:54;13.30;60.10
7046;DHT22;3564;53.326;10.356;2023-03-16T12:26:25;13.40;61.50
7046;DHT22;3564;53.326;10.356;2023-03-16T12:28:55;13.50;60.90
7046;DHT22;3564;53.326;10.356;2023-03-16T12:34:35;13.50;60.50
7046;DHT22;3564;53.326;10.356;2023-03-16T12:40:17;13.80;61.50
7046;DHT22;3564;53.326;10.356;2023-03-16T12:45:57;14.00;60.20
7046;DHT22;3564;53.326;10.356;2023-03-16T12:48:39;14.10;59.70
7046;DHT22;3564;53.326;10.356;2023-03-16T12:51:08;14.10;59.10
7046;DHT22;3564;53.326;10.356;2023-03-16T12:56:44;14.10;56.00
7046;DHT22;3564;53.326;10.356;2023-03-16T12:59:16;14.10;57.30
7046;DHT22;3564;53.326;10.356;2023-03-16T13:01:47;14.00;55.80
7046;DHT22;3564;53.326;10.356;2023-03-16T13:04:15;14.10;56.20
7046;DHT22;3564;53.326;10.356;2023-03-16T13:06:49;14.10;56.70
7046;DHT22;3564;53.326;10.356;2023-03-16T13:09:23;14.20;56.80
7046;DHT22;3564;53.326;10.356;2023-03-16T13:11:49;14.20;56.00
7046;DHT22;3564;53.326;10.356;2023-03-16T13:17:06;14.10;56.40
7046;DHT22;3564;53.326;10.356;2023-03-16T13:19:59;14.20;55.30
7046;DHT22;3564;53.326;10.356;2023-03-16T13:22:28;14.20;56.30
7046;DHT22;3564;53.326;10.356;2023-03-16T13:25:44;14.20;56.00
7046;DHT22;3564;53.326;10.356;2023-03-16T13:28:07;14.30;56.20
7046;DHT22;3564;53.326;10.356;2023-03-16T13:30:36;14.30;56.30
7046;DHT22;3564;53.326;10.356;2023-03-16T13:33:20;14.40;56.90
7046;DHT22;3564;53.326;10.356;2023-03-16T13:35:48;14.40;56.40
7046;DHT22;3564;53.326;10.356;2023-03-16T13:38:17;14.50;55.90
7046;DHT22;3564;53.326;10.356;2023-03-16T13:40:49;14.60;56.90
7046;DHT22;3564;53.326;10.356;2023-03-16T13:43:17;14.60;56.60
7046;DHT22;3564;53.326;10.356;2023-03-16T13:45:43;14.60;56.70
7046;DHT22;3564;53.326;10.356;2023-03-16T13:48:13;14.50;55.80
7046;DHT22;3564;53.326;10.356;2023-03-16T13:50:40;14.50;57.00
7046;DHT22;3564;53.326;10.356;2023-03-16T13:53:20;14.50;57.00
7046;DHT22;3564;53.326;10.356;2023-03-16T13:55:47;14.50;56.20
7046;DHT22;3564;53.326;10.356;2023-03-16T13:58:21;14.50;55.90
7046;DHT22;3564;53.326;10.356;2023-03-16T14:00:47;14.50;56.90
7046;DHT22;3564;53.326;10.356;2023-03-16T14:03:15;14.40;55.60
7046;DHT22;3564;53.326;10.356;2023-03-16T14:05:43;14.40;54.50
7046;DHT22;3564;53.326;10.356;2023-03-16T14:08:20;14.30;53.40
7046;DHT22;3564;53.326;10.356;2023-03-16T14:10:48;14.20;53.20
7046;DHT22;3564;53.326;10.356;2023-03-16T14:16:26;14.00;54.30
7046;DHT22;3564;53.326;10.356;2023-03-16T14:21:24;13.90;55.60
7046;DHT22;3564;53.326;10.356;2023-03-16T14:24:01;13.80;55.80
7046;DHT22;3564;53.326;10.356;2023-03-16T14:26:40;13.70;55.50
7046;DHT22;3564;53.326;10.356;2023-03-16T14:29:28;13.60;55.70
7046;DHT22;3564;53.326;10.356;2023-03-16T14:31:58;13.60;55.70
7046;DHT22;3564;53.326;10.356;2023-03-16T14:34:37;13.60;55.70
7046;DHT22;3564;53.326;10.356;2023-03-16T14:37:11;13.50;56.50
7046;DHT22;3564;53.326;10.356;2023-03-16T14:39:38;13.50;57.80
7046;DHT22;3564;53.326;10.356;2023-03-16T14:42:19;13.50;57.40
7046;DHT22;3564;53.326;10.356;2023-03-16T14:44:46;13.50;57.40
7046;DHT22;3564;53.326;10.356;2023-03-16T14:47:21;13.50;57.10
7046;DHT22;3564;53.326;10.356;2023-03-16T14:49:47;13.50;57.00
7046;DHT22;3564;53.326;10.356;2023-03-16T14:52:31;13.50;57.40
7046;DHT22;3564;53.326;10.356;2023-03-16T14:55:11;13.50;57.60
7046;DHT22;3564;53.326;10.356;2023-03-16T14:57:38;13.60;58.10
7046;DHT22;3564;53.326;10.356;2023-03-16T15:00:13;13.70;58.90
7046;DHT22;3564;53.326;10.356;2023-03-16T15:02:42;13.70;58.20
7046;DHT22;3564;53.326;10.356;2023-03-16T15:05:11;13.80;59.40
7046;DHT22;3564;53.326;10.356;2023-03-16T15:07:42;13.90;59.10
7046;DHT22;3564;53.326;10.356;2023-03-16T15:10:20;14.00;59.20
7046;DHT22;3564;53.326;10.356;2023-03-16T15:12:57;14.10;58.80
7046;DHT22;3564;53.326;10.356;2023-03-16T15:15:31;14.10;58.60
7046;DHT22;3564;53.326;10.356;2023-03-16T15:17:57;14.10;58.70
7046;DHT22;3564;53.326;10.356;2023-03-16T15:20:32;14.10;57.80
7046;DHT22;3564;53.326;10.356;2023-03-16T15:22:59;14.00;58.60
7046;DHT22;3564;53.326;10.356;2023-03-16T15:25:45;14.00;58.50
7046;DHT22;3564;53.326;10.356;2023-03-16T15:28:20;13.90;57.70
7046;DHT22;3564;53.326;10.356;2023-03-16T15:30:48;13.90;57.60
7046;DHT22;3564;53.326;10.356;2023-03-16T15:33:14;13.80;57.40
7046;DHT22;3564;53.326;10.356;2023-03-16T15:35:42;13.70;57.00
7046;DHT22;3564;53.326;10.356;2023-03-16T15:38:31;13.60;57.80
7046;DHT22;3564;53.326;10.356;2023-03-16T15:40:58;13.60;58.20
7046;DHT22;3564;53.326;10.356;2023-03-16T15:43:26;13.50;58.50
7046;DHT22;3564;53.326;10.356;2023-03-16T15:45:54;13.50;58.30
7046;DHT22;3564;53.326;10.356;2023-03-16T15:48:21;13.40;57.80
7046;DHT22;3564;53.326;10.356;2023-03-16T15:51:03;13.40;58.10
7046;DHT22;3564;53.326;10.356;2023-03-16T15:53:38;13.30;57.50
7046;DHT22;3564;53.326;10.356;2023-03-16T15:56:10;13.30;57.60
7046;DHT22;3564;53.326;10.356;2023-03-16T15:58:39;13.20;58.10
7046;DHT22;3564;53.326;10.356;2023-03-16T16:01:06;13.20;58.30
7046;DHT22;3564;53.326;10.356;2023-03-16T16:03:33;13.10;56.60
7046;DHT22;3564;53.326;10.356;2023-03-16T16:05:59;13.00;57.60
7046;DHT22;3564;53.326;10.356;2023-03-16T16:08:25;13.00;57.90
7046;DHT22;3564;53.326;10.356;2023-03-16T16:10:51;13.00;58.70
7046;DHT22;3564;53.326;10.356;2023-03-16T16:13:30;13.00;58.80
7046;DHT22;3564;53.326;10.356;2023-03-16T16:15:56;12.90;59.00
7046;DHT22;3564;53.326;10.356;2023-03-16T16:20:55;12.80;58.30
7046;DHT22;3564;53.326;10.356;2023-03-16T16:23:22;12.80;58.60
7046;DHT22;3564;53.326;10.356;2023-03-16T16:25:48;12.80;58.90
7046;DHT22;3564;53.326;10.356;2023-03-16T16:28:24;12.80;58.10
7046;DHT22;3564;53.326;10.356;2023-03-16T16:30:51;12.70;58.50
7046;DHT22;3564;53.326;10.356;2023-03-16T16:33:23;12.70;58.40
7046;DHT22;3564;53.326;10.356;2023-03-16T16:35:49;12.70;58.80
7046;DHT22;3564;53.326;10.356;2023-03-16T16:38:15;12.70;59.40
7046;DHT22;3564;53.326;10.356;2023-03-16T16:40:41;12.70;59.50
7046;DHT22;3564;53.326;10.356;2023-03-16T16:46:00;12.60;60.60
7046;DHT22;3564;53.326;10.356;2023-03-16T16:48:37;12.60;60.50
7046;DHT22;3564;53.326;10.356;2023-03-16T16:51:05;12.60;61.10
7046;DHT22;3564;53.326;10.356;2023-03-16T16:53:33;12.50;60.70
7046;DHT22;3564;53.326;10.356;2023-03-16T16:55:59;12.50;60.90
7046;DHT22;3564;53.326;10.356;2023-03-16T16:58:31;12.40;61.60
7046;DHT22;3564;53.326;10.356;2023-03-16T17:00:57;12.40;61.10
7046;DHT22;3564;53.326;10.356;2023-03-16T17:03:27;12.40;61.60
7046;DHT22;3564;53.326;10.356;2023-03-16T17:05:56;12.30;62.00
7046;DHT22;3564;53.326;10.356;2023-03-16T17:08:26;12.30;62.40
7046;DHT22;3564;53.326;10.356;2023-03-16T17:10:53;12.20;62.90
7046;DHT22;3564;53.326;10.356;2023-03-16T17:13:48;12.20;63.50
7046;DHT22;3564;53.326;10.356;2023-03-16T17:16:17;12.20;63.80
7046;DHT22;3564;53.326;10.356;2023-03-16T17:18:45;12.10;63.90
7046;DHT22;3564;53.326;10.356;2023-03-16T17:21:16;12.10;64.80
7046;DHT22;3564;53.326;10.356;2023-03-16T17:24:00;12.10;64.80
7046;DHT22;3564;53.326;10.356;2023-03-16T17:26:32;12.10;64.70
7046;DHT22;3564;53.326;10.356;2023-03-16T17:29:22;12.10;65.50
7046;DHT22;3564;53.326;10.356;2023-03-16T17:32:14;12.00;65.40
7046;DHT22;3564;53.326;10.356;2023-03-16T17:34:41;12.00;65.80
7046;DHT22;3564;53.326;10.356;2023-03-16T17:37:12;12.00;66.30